createdAt,value
2019-02-15T00:00:13.446Z,19.37
2019-02-15T00:02:41.967Z,17.63
2019-02-15T00:05:29.896Z,19.47
2019-02-15T00:07:58.463Z,18.63
2019-02-15T00:10:27.039Z,19.47
2019-02-15T00:12:55.607Z,19.10
2019-02-15T00:15:24.229Z,18.83
2019-02-15T00:17:54.471Z,19.20
2019-02-15T00:20:33.322Z,19.53
2019-02-15T00:23:01.897Z,23.53
2019-02-15T00:25:30.479Z,20.43
2019-02-15T00:27:59.050Z,21.00
2019-02-15T00:30:27.627Z,19.93
2019-02-15T00:32:56.252Z,17.77
2019-02-15T00:35:24.841Z,17.47
2019-02-15T00:37:53.420Z,18.30
2019-02-15T00:40:22.010Z,19.77
2019-02-15T00:42:50.572Z,18.00
2019-02-15T00:45:20.802Z,18.87
2019-02-15T00:47:53.500Z,16.80
2019-02-15T00:50:23.722Z,18.03
2019-02-15T00:52:59.631Z,17.63
2019-02-15T00:55:32.796Z,18.47
2019-02-15T00:58:25.529Z,15.90
2019-02-15T01:03:46.007Z,18.53
2019-02-15T01:06:32.897Z,17.70
2019-02-15T01:09:09.012Z,16.50
2019-02-15T01:11:45.108Z,16.33
2019-02-15T01:14:14.275Z,16.20
2019-02-15T01:16:44.194Z,18.23
2019-02-15T01:19:12.994Z,17.80
2019-02-15T01:21:41.867Z,20.53
2019-02-15T01:24:10.492Z,19.83
2019-02-15T01:26:41.012Z,21.10
2019-02-15T01:29:27.583Z,22.10
2019-02-15T01:32:16.482Z,19.77
2019-02-15T01:34:48.229Z,18.90
2019-02-15T01:37:34.755Z,20.63
2019-02-15T01:40:05.023Z,18.10
2019-02-15T01:42:47.179Z,17.30
2019-02-15T01:45:17.380Z,17.93
2019-02-15T01:47:45.964Z,17.87
2019-02-15T01:50:14.533Z,18.07
2019-02-15T01:52:43.120Z,17.40
2019-02-15T01:55:11.824Z,16.87
2019-02-15T01:57:40.409Z,18.53
2019-02-15T02:00:31.511Z,16.77
2019-02-15T02:03:00.101Z,17.83
2019-02-15T02:05:28.651Z,18.33
2019-02-15T02:07:57.236Z,16.80
2019-02-15T02:10:25.799Z,17.93
2019-02-15T02:12:54.393Z,19.37
2019-02-15T02:15:22.957Z,19.00
2019-02-15T02:17:51.539Z,19.57
2019-02-15T02:20:20.102Z,20.37
2019-02-15T02:22:48.684Z,21.80
2019-02-15T02:25:17.255Z,23.30
2019-02-15T02:27:45.847Z,22.27
2019-02-15T02:30:14.545Z,22.80
2019-02-15T02:32:43.137Z,22.17
2019-02-15T02:35:11.700Z,23.90
2019-02-15T02:37:40.285Z,24.00
2019-02-15T02:40:09.111Z,24.17
2019-02-15T02:42:37.764Z,24.83
2019-02-15T02:45:07.600Z,21.43
2019-02-15T02:47:36.192Z,23.67
2019-02-15T02:50:06.996Z,21.07
2019-02-15T02:52:35.588Z,21.13
2019-02-15T02:55:05.184Z,21.17
2019-02-15T02:57:33.772Z,19.57
2019-02-15T03:00:02.404Z,20.20
2019-02-15T03:02:31.007Z,19.93
2019-02-15T03:04:59.578Z,19.60
2019-02-15T03:07:28.122Z,20.57
2019-02-15T03:09:56.723Z,19.10
2019-02-15T03:12:25.267Z,19.93
2019-02-15T03:14:53.869Z,21.87
2019-02-15T03:17:22.435Z,22.87
2019-02-15T03:19:51.057Z,22.40
2019-02-15T03:22:19.670Z,24.18
2019-02-15T03:24:48.274Z,23.93
2019-02-15T03:27:16.834Z,22.80
2019-02-15T03:29:45.408Z,22.23
2019-02-15T03:32:13.984Z,22.37
2019-02-15T03:34:42.562Z,23.80
2019-02-15T03:37:24.947Z,23.67
2019-02-15T03:39:55.172Z,23.53
2019-02-15T03:42:24.105Z,22.53
2019-02-15T03:44:52.705Z,22.90
2019-02-15T03:47:22.892Z,21.80
2019-02-15T03:49:51.495Z,23.60
2019-02-15T03:52:20.129Z,22.43
2019-02-15T03:54:48.784Z,22.30
2019-02-15T03:57:17.416Z,22.63
2019-02-15T03:59:46.072Z,23.50
2019-02-15T04:02:14.803Z,23.37
2019-02-15T04:04:43.410Z,25.95
2019-02-15T04:07:11.965Z,24.20
2019-02-15T04:09:40.554Z,25.37
2019-02-15T04:12:09.116Z,25.47
2019-02-15T04:14:37.703Z,23.07
2019-02-15T04:17:06.272Z,21.80
2019-02-15T04:19:34.849Z,22.20
2019-02-15T04:22:03.433Z,22.40
2019-02-15T04:24:32.008Z,22.97
2019-02-15T04:27:00.583Z,24.20
2019-02-15T04:29:29.358Z,27.00
2019-02-15T04:31:59.439Z,24.82
2019-02-15T04:37:56.988Z,22.13
2019-02-15T04:40:25.574Z,21.77
2019-02-15T04:42:54.144Z,21.43
2019-02-15T04:45:22.737Z,20.97
2019-02-15T04:47:51.305Z,23.07
2019-02-15T04:50:19.882Z,22.00
2019-02-15T04:52:48.436Z,23.03
2019-02-15T04:55:17.025Z,23.07
2019-02-15T04:57:45.593Z,23.43
2019-02-15T05:00:14.185Z,24.53
2019-02-15T05:02:42.745Z,24.90
2019-02-15T05:05:11.341Z,26.00
2019-02-15T05:07:39.905Z,24.80
2019-02-15T05:10:08.489Z,22.53
2019-02-15T05:12:37.127Z,23.87
2019-02-15T05:15:07.648Z,23.63
2019-02-15T05:17:36.212Z,22.33
2019-02-15T05:20:06.742Z,22.87
2019-02-15T05:22:35.309Z,22.97
2019-02-15T05:25:03.973Z,23.35
2019-02-15T05:27:32.537Z,21.67
2019-02-15T05:30:01.138Z,23.57
2019-02-15T05:32:29.702Z,22.47
2019-02-15T05:34:58.290Z,22.07
2019-02-15T05:37:26.856Z,22.87
2019-02-15T05:39:55.444Z,24.40
2019-02-15T05:42:24.011Z,26.43
2019-02-15T05:45:03.027Z,32.75
2019-02-15T05:47:22.813Z,28.80
2019-02-15T05:49:51.376Z,29.87
2019-02-15T05:52:19.967Z,30.17
2019-02-15T05:54:48.533Z,30.05
2019-02-15T05:57:17.120Z,29.80
2019-02-15T05:59:45.691Z,28.53
2019-02-15T06:02:14.275Z,27.07
2019-02-15T06:04:42.857Z,25.17
2019-02-15T06:07:11.450Z,25.48
2019-02-15T06:09:40.018Z,24.60
2019-02-15T06:12:08.609Z,23.15
2019-02-15T06:14:37.406Z,23.40
2019-02-15T06:17:05.945Z,23.12
2019-02-15T06:19:34.520Z,23.37
2019-02-15T06:22:03.103Z,22.77
2019-02-15T06:24:31.680Z,24.67
2019-02-15T06:27:00.277Z,23.23
2019-02-15T06:29:28.854Z,24.55
2019-02-15T06:32:12.538Z,24.73
2019-02-15T06:34:41.105Z,27.15
2019-02-15T06:37:09.734Z,25.52
2019-02-15T06:40:28.050Z,27.23
2019-02-15T06:42:56.561Z,26.50
2019-02-15T06:45:25.609Z,31.13
2019-02-15T06:47:54.229Z,36.27
2019-02-15T06:50:22.781Z,39.73
2019-02-15T06:52:51.376Z,44.80
2019-02-15T06:55:19.958Z,45.70
2019-02-15T06:57:48.550Z,36.20
2019-02-15T07:00:36.566Z,26.27
2019-02-15T07:03:06.772Z,24.40
2019-02-15T07:05:35.341Z,25.00
2019-02-15T07:08:03.993Z,23.67
2019-02-15T07:10:32.564Z,22.77
2019-02-15T07:13:01.154Z,20.60
2019-02-15T07:15:33.673Z,20.63
2019-02-15T07:17:59.945Z,22.50
2019-02-15T07:20:28.508Z,23.13
2019-02-15T07:22:57.090Z,19.70
2019-02-15T07:25:25.648Z,18.63
2019-02-15T07:27:54.237Z,17.73
2019-02-15T07:30:22.804Z,17.57
2019-02-15T07:32:51.383Z,17.60
2019-02-15T07:35:19.945Z,17.27
2019-02-15T07:37:48.526Z,17.23
2019-02-15T07:40:17.157Z,17.60
2019-02-15T07:42:45.757Z,17.13
2019-02-15T07:45:14.385Z,18.13
2019-02-15T07:47:42.964Z,18.60
2019-02-15T07:50:13.571Z,18.83
2019-02-15T07:52:42.156Z,18.60
2019-02-15T07:55:10.787Z,18.70
2019-02-15T07:57:39.368Z,18.57
2019-02-15T08:00:13.496Z,19.43
2019-02-15T08:02:42.076Z,18.70
2019-02-15T08:05:11.272Z,18.60
2019-02-15T08:07:39.928Z,19.50
2019-02-15T08:10:10.899Z,19.23
2019-02-15T08:12:39.476Z,17.63
2019-02-15T08:15:09.779Z,19.37
2019-02-15T08:17:38.357Z,20.33
2019-02-15T08:20:10.132Z,18.83
2019-02-15T08:22:38.779Z,18.03
2019-02-15T08:25:08.293Z,18.93
2019-02-15T08:27:36.942Z,18.80
2019-02-15T08:30:08.508Z,18.57
2019-02-15T08:32:37.100Z,18.83
2019-02-15T08:35:07.909Z,18.47
2019-02-15T08:37:36.603Z,18.07
2019-02-15T08:40:08.193Z,18.67
2019-02-15T08:42:36.845Z,20.17
2019-02-15T08:45:08.744Z,18.33
2019-02-15T08:47:37.331Z,19.70
2019-02-15T08:50:08.535Z,19.13
2019-02-15T08:52:37.112Z,20.40
2019-02-15T08:55:08.224Z,20.93
2019-02-15T08:57:36.789Z,19.33
2019-02-15T09:00:08.356Z,18.60
2019-02-15T09:02:36.988Z,20.80
2019-02-15T09:05:07.811Z,20.47
2019-02-15T09:07:36.369Z,19.17
2019-02-15T09:10:07.899Z,19.33
2019-02-15T09:12:36.453Z,19.90
2019-02-15T09:15:08.145Z,20.00
2019-02-15T09:17:36.696Z,20.33
2019-02-15T09:20:08.554Z,19.50
2019-02-15T09:22:37.138Z,20.63
2019-02-15T09:25:07.955Z,21.63
2019-02-15T09:27:38.156Z,21.90
2019-02-15T09:30:09.805Z,22.10
2019-02-15T09:32:38.362Z,22.43
2019-02-15T09:35:09.577Z,22.07
2019-02-15T09:37:38.237Z,22.47
2019-02-15T09:40:09.366Z,23.27
2019-02-15T09:42:37.916Z,24.60
2019-02-15T09:45:10.039Z,21.87
2019-02-15T09:47:38.598Z,23.23
2019-02-15T09:50:12.369Z,22.17
2019-02-15T09:52:41.108Z,21.67
2019-02-15T09:55:09.774Z,22.23
2019-02-15T09:57:38.366Z,22.87
2019-02-15T10:00:09.185Z,22.90
2019-02-15T10:02:37.752Z,22.23
2019-02-15T10:05:07.767Z,23.63
2019-02-15T10:07:36.432Z,23.40
2019-02-15T10:10:10.117Z,23.20
2019-02-15T10:12:38.668Z,23.50
2019-02-15T10:15:09.400Z,24.77
2019-02-15T10:17:37.986Z,25.17
2019-02-15T10:20:07.707Z,23.07
2019-02-15T10:22:36.329Z,23.60
2019-02-15T10:25:07.523Z,24.77
2019-02-15T10:27:36.080Z,25.10
2019-02-15T10:30:10.208Z,25.00
2019-02-15T10:32:38.772Z,23.50
2019-02-15T10:35:12.124Z,24.20
2019-02-15T10:37:40.685Z,25.77
2019-02-15T10:40:10.709Z,25.63
2019-02-15T10:42:39.334Z,24.43
2019-02-15T10:45:13.496Z,26.33
2019-02-15T10:47:42.055Z,25.47
2019-02-15T10:50:11.557Z,24.17
2019-02-15T10:52:40.136Z,25.37
2019-02-15T10:55:09.446Z,24.07
2019-02-15T10:57:38.163Z,25.53
2019-02-15T11:00:19.018Z,26.10
2019-02-15T11:02:48.095Z,26.53
2019-02-15T11:05:17.740Z,25.80
2019-02-15T11:07:46.327Z,25.70
2019-02-15T11:10:14.925Z,25.07
2019-02-15T11:12:43.515Z,23.87
2019-02-15T11:15:18.325Z,23.87
2019-02-15T11:17:46.911Z,25.20
2019-02-15T11:20:17.211Z,25.73
2019-02-15T11:22:45.874Z,25.70
2019-02-15T11:25:14.603Z,26.70
2019-02-15T11:27:43.217Z,24.93
2019-02-15T11:30:16.206Z,25.87
2019-02-15T11:32:44.778Z,23.23
2019-02-15T11:35:14.939Z,25.83
2019-02-15T11:37:43.517Z,23.47
2019-02-15T11:40:15.675Z,23.97
2019-02-15T11:42:44.248Z,25.33
2019-02-15T11:45:14.507Z,23.60
2019-02-15T11:47:43.203Z,25.03
2019-02-15T11:50:13.104Z,23.87
2019-02-15T11:52:41.769Z,24.00
2019-02-15T11:55:11.270Z,24.80
2019-02-15T11:57:39.983Z,23.80
2019-02-15T12:00:17.810Z,23.07
2019-02-15T12:02:46.261Z,24.00
2019-02-15T12:05:14.860Z,23.87
2019-02-15T12:07:43.465Z,24.17
2019-02-15T12:10:12.190Z,22.50
2019-02-15T12:12:40.802Z,22.57
2019-02-15T12:15:10.429Z,23.60
2019-02-15T12:17:39.009Z,22.77
2019-02-15T12:20:15.361Z,21.43
2019-02-15T12:22:43.983Z,22.87
2019-02-15T12:25:12.709Z,22.70
2019-02-15T12:27:41.433Z,22.27
2019-02-15T12:30:15.290Z,21.53
2019-02-15T12:32:43.872Z,20.83
2019-02-15T12:35:12.768Z,20.67
2019-02-15T12:37:41.531Z,21.47
2019-02-15T12:40:11.257Z,19.13
2019-02-15T12:42:39.836Z,21.73
2019-02-15T12:45:10.874Z,20.43
2019-02-15T12:47:39.482Z,20.73
2019-02-15T12:50:11.125Z,19.00
2019-02-15T12:52:39.688Z,19.20
2019-02-15T12:55:08.452Z,20.37
2019-02-15T12:57:37.007Z,20.17
2019-02-15T13:00:16.907Z,18.20
2019-02-15T13:02:45.461Z,20.03
2019-02-15T13:05:14.681Z,18.20
2019-02-15T13:07:43.250Z,19.73
2019-02-15T13:10:29.660Z,18.67
2019-02-15T13:12:58.252Z,19.07
2019-02-15T13:15:26.850Z,17.10
2019-02-15T13:17:55.412Z,16.57
2019-02-15T13:20:23.992Z,16.67
2019-02-15T13:22:52.553Z,16.00
2019-02-15T13:25:21.140Z,16.63
2019-02-15T13:27:49.697Z,17.23
2019-02-15T13:30:18.358Z,17.10
2019-02-15T13:32:46.997Z,16.37
2019-02-15T13:35:18.958Z,15.47
2019-02-15T13:37:47.521Z,16.90
2019-02-15T13:40:16.126Z,17.27
2019-02-15T13:42:44.685Z,15.83
2019-02-15T13:45:13.834Z,16.67
2019-02-15T13:47:42.400Z,16.57
2019-02-15T13:50:16.063Z,17.23
2019-02-15T13:52:44.685Z,17.43
2019-02-15T13:55:13.261Z,17.57
2019-02-15T13:57:41.832Z,18.20
2019-02-15T14:00:12.662Z,17.47
2019-02-15T14:02:41.293Z,16.13
2019-02-15T14:05:11.799Z,17.70
2019-02-15T14:07:40.658Z,17.10
2019-02-15T14:10:12.451Z,17.93
2019-02-15T14:12:41.093Z,16.53
2019-02-15T14:15:12.005Z,16.53
2019-02-15T14:17:45.363Z,15.73
2019-02-15T14:20:13.435Z,16.73
2019-02-15T14:22:42.668Z,16.43
2019-02-15T14:25:12.776Z,15.67
2019-02-15T14:27:42.040Z,14.57
2019-02-15T14:30:12.158Z,15.13
2019-02-15T14:32:41.077Z,17.67
2019-02-15T14:35:12.249Z,17.03
2019-02-15T14:37:41.012Z,15.50
2019-02-15T14:40:12.142Z,15.13
2019-02-15T14:42:40.916Z,14.53
2019-02-15T14:45:11.688Z,14.80
2019-02-15T14:47:40.866Z,15.30
2019-02-15T14:50:11.220Z,13.23
2019-02-15T14:52:39.951Z,15.43
2019-02-15T14:55:10.495Z,15.63
2019-02-15T14:57:39.526Z,14.20
2019-02-15T15:00:13.226Z,12.87
2019-02-15T15:02:55.159Z,12.93
2019-02-15T15:05:21.119Z,13.03
2019-02-15T15:07:50.274Z,13.30
2019-02-15T15:10:19.282Z,12.10
2019-02-15T15:12:48.279Z,12.67
2019-02-15T15:15:16.984Z,11.17
2019-02-15T15:17:45.624Z,10.90
2019-02-15T15:20:14.367Z,10.07
2019-02-15T15:22:42.923Z,11.60
2019-02-15T15:25:13.834Z,11.40
2019-02-15T15:27:42.749Z,14.30
2019-02-15T15:30:15.691Z,17.10
2019-02-15T15:32:44.316Z,16.53
2019-02-15T15:35:13.313Z,14.10
2019-02-15T15:37:41.895Z,13.87
2019-02-15T15:40:13.025Z,13.53
2019-02-15T15:42:41.584Z,13.37
2019-02-15T15:45:11.836Z,13.70
2019-02-15T15:47:40.573Z,13.00
2019-02-15T15:50:11.144Z,15.67
2019-02-15T15:52:39.820Z,14.20
2019-02-15T15:55:13.321Z,15.30
2019-02-15T15:57:41.866Z,15.00
2019-02-15T16:00:15.995Z,15.27
2019-02-15T16:02:44.570Z,17.37
2019-02-15T16:05:13.216Z,16.97
2019-02-15T16:07:43.726Z,17.27
2019-02-15T16:10:13.589Z,18.37
2019-02-15T16:12:42.408Z,21.57
2019-02-15T16:15:14.942Z,20.40
2019-02-15T16:17:43.947Z,22.07
2019-02-15T16:20:13.854Z,23.63
2019-02-15T16:22:42.845Z,23.13
2019-02-15T16:25:11.588Z,23.67
2019-02-15T16:27:40.153Z,25.70
2019-02-15T16:30:16.160Z,22.13
2019-02-15T16:32:44.789Z,23.93
2019-02-15T16:35:13.542Z,22.53
2019-02-15T16:37:42.146Z,25.37
2019-02-15T16:40:15.158Z,23.83
2019-02-15T16:42:43.718Z,25.37
2019-02-15T16:45:14.531Z,22.67
2019-02-15T16:47:43.234Z,25.87
2019-02-15T16:50:12.579Z,23.10
2019-02-15T16:52:41.170Z,22.67
2019-02-15T16:55:12.981Z,23.60
2019-02-15T16:57:40.365Z,23.20
2019-02-15T17:00:13.789Z,23.60
2019-02-15T17:02:42.341Z,22.20
2019-02-15T17:05:11.354Z,24.00
2019-02-15T17:07:39.952Z,23.37
2019-02-15T17:10:10.170Z,24.13
2019-02-15T17:12:38.828Z,25.37
2019-02-15T17:15:10.379Z,25.97
2019-02-15T17:17:38.960Z,30.23
2019-02-15T17:20:09.358Z,31.67
2019-02-15T17:22:37.937Z,31.70
2019-02-15T17:25:09.365Z,28.80
2019-02-15T17:27:38.001Z,28.70
2019-02-15T17:30:11.731Z,27.30
2019-02-15T17:32:40.376Z,27.13
2019-02-15T17:35:10.483Z,27.17
2019-02-15T17:37:39.094Z,26.53
2019-02-15T17:40:10.444Z,27.60
2019-02-15T17:42:39.053Z,26.87
2019-02-15T17:45:09.744Z,27.27
2019-02-15T17:47:38.328Z,30.73
2019-02-15T17:50:09.057Z,26.33
2019-02-15T17:52:37.700Z,27.17
2019-02-15T17:55:08.296Z,29.73
2019-02-15T17:57:36.954Z,28.93
2019-02-15T18:00:09.113Z,28.33
2019-02-15T18:02:40.339Z,28.00
2019-02-15T18:05:11.976Z,26.00
2019-02-15T18:07:40.589Z,32.60
2019-02-15T18:10:09.288Z,30.73
2019-02-15T18:12:37.867Z,31.20
2019-02-15T18:15:06.856Z,29.50
2019-02-15T18:17:35.454Z,28.43
2019-02-15T18:20:05.465Z,28.27
2019-02-15T18:22:34.078Z,25.83
2019-02-15T18:25:02.628Z,27.50
2019-02-15T18:27:31.289Z,32.87
2019-02-15T18:29:59.886Z,31.33
2019-02-15T18:32:28.565Z,29.13
2019-02-15T18:34:57.149Z,28.53
2019-02-15T18:37:25.869Z,27.83
2019-02-15T18:39:54.432Z,27.43
2019-02-15T18:42:23.047Z,26.27
2019-02-15T18:44:51.600Z,24.77
2019-02-15T18:47:20.654Z,28.57
2019-02-15T18:49:49.230Z,31.53
2019-02-15T18:52:17.813Z,31.83
2019-02-15T18:54:46.579Z,28.57
2019-02-15T18:57:15.152Z,27.77
2019-02-15T18:59:43.704Z,26.93
2019-02-15T19:02:12.322Z,27.10
2019-02-15T19:04:40.882Z,26.43
2019-02-15T19:07:09.603Z,28.80
2019-02-15T19:09:38.151Z,26.80
2019-02-15T19:12:06.837Z,27.50
2019-02-15T19:14:35.392Z,27.80
2019-02-15T19:17:04.554Z,28.10
2019-02-15T19:19:33.351Z,28.43
2019-02-15T19:22:02.004Z,27.70
2019-02-15T19:24:30.572Z,25.70
2019-02-15T19:26:59.153Z,27.80
2019-02-15T19:29:27.732Z,29.10
2019-02-15T19:31:56.303Z,26.77
2019-02-15T19:34:24.885Z,28.23
2019-02-15T19:36:53.622Z,43.03
2019-02-15T19:39:22.217Z,32.67
2019-02-15T19:41:50.862Z,28.47
2019-02-15T19:44:19.469Z,29.40
2019-02-15T19:46:48.388Z,24.67
2019-02-15T19:49:16.927Z,25.03
2019-02-15T19:51:45.461Z,27.00
2019-02-15T19:54:14.050Z,27.50
2019-02-15T19:56:42.765Z,26.60
2019-02-15T19:59:11.344Z,25.93
2019-02-15T20:01:39.899Z,35.97
2019-02-15T20:04:08.932Z,37.07
2019-02-15T20:06:37.523Z,31.47
2019-02-15T20:09:06.304Z,28.60
2019-02-15T20:11:34.862Z,26.60
2019-02-15T20:14:03.575Z,25.97
2019-02-15T20:16:32.163Z,27.47
2019-02-15T20:19:00.807Z,23.57
2019-02-15T20:21:29.397Z,25.70
2019-02-15T20:23:58.083Z,23.07
2019-02-15T20:26:26.737Z,23.67
2019-02-15T20:28:55.318Z,25.27
2019-02-15T20:31:23.983Z,30.17
2019-02-15T20:33:52.556Z,28.40
2019-02-15T20:36:21.120Z,29.37
2019-02-15T20:38:49.782Z,27.10
2019-02-15T20:41:18.336Z,30.40
2019-02-15T20:43:47.018Z,29.53
2019-02-15T20:46:15.643Z,28.53
2019-02-15T20:48:44.180Z,27.13
2019-02-15T20:51:12.963Z,26.10
2019-02-15T20:53:41.551Z,27.63
2019-02-15T20:56:10.304Z,30.40
2019-02-15T20:58:39.039Z,28.70
2019-02-15T21:01:07.678Z,28.43
2019-02-15T21:03:36.275Z,29.07
2019-02-15T21:06:05.006Z,28.77
2019-02-15T21:08:33.707Z,30.43
2019-02-15T21:11:02.340Z,31.27
2019-02-15T21:13:30.903Z,29.37
2019-02-15T21:15:59.485Z,28.60
2019-02-15T21:18:28.125Z,29.60
2019-02-15T21:20:56.752Z,30.93
2019-02-15T21:23:25.461Z,29.53
2019-02-15T21:25:54.048Z,28.40
2019-02-15T21:28:22.653Z,28.43
2019-02-15T21:30:51.257Z,27.07
2019-02-15T21:33:19.881Z,25.57
2019-02-15T21:35:48.461Z,25.03
2019-02-15T21:38:17.029Z,24.07
2019-02-15T21:40:45.615Z,28.40
2019-02-15T21:43:14.183Z,28.80
2019-02-15T21:45:42.793Z,30.43
2019-02-15T21:48:11.509Z,32.57
2019-02-15T21:50:40.096Z,32.67
2019-02-15T21:53:08.660Z,29.10
2019-02-15T21:55:37.249Z,25.93
2019-02-15T21:58:05.915Z,24.30
2019-02-15T22:00:34.569Z,24.27
2019-02-15T22:03:03.168Z,23.73
2019-02-15T22:05:31.741Z,24.53
2019-02-15T22:08:00.392Z,22.37
2019-02-15T22:10:29.075Z,20.53
2019-02-15T22:12:57.700Z,23.07
2019-02-15T22:15:26.279Z,21.60
2019-02-15T22:17:54.853Z,23.43
2019-02-15T22:20:26.589Z,21.77
2019-02-15T22:22:53.652Z,24.73
2019-02-15T22:25:22.262Z,26.47
2019-02-15T22:27:50.884Z,28.93
2019-02-15T22:30:20.425Z,31.70
2019-02-15T22:32:49.064Z,30.60
2019-02-15T22:35:17.649Z,29.80
2019-02-15T22:37:46.212Z,26.77
2019-02-15T22:40:29.093Z,24.93
2019-02-15T22:43:12.324Z,25.47
2019-02-15T22:45:40.975Z,24.83
2019-02-15T22:48:09.625Z,28.17
2019-02-15T22:50:38.249Z,31.17
2019-02-15T22:53:06.800Z,30.90
2019-02-15T22:55:35.457Z,28.83
2019-02-15T22:58:04.622Z,25.40
2019-02-15T23:00:52.834Z,24.57
2019-02-15T23:03:23.767Z,22.93
2019-02-15T23:05:52.500Z,25.50
2019-02-15T23:08:21.200Z,23.03
2019-02-15T23:10:49.847Z,23.33
2019-02-15T23:13:18.429Z,22.30
2019-02-15T23:15:47.176Z,23.23
2019-02-15T23:18:15.870Z,26.93
2019-02-15T23:20:45.557Z,23.70
2019-02-15T23:23:14.317Z,23.93
2019-02-15T23:25:42.885Z,24.07
2019-02-15T23:28:11.542Z,25.63
2019-02-15T23:30:40.160Z,28.93
2019-02-15T23:33:10.272Z,32.67
2019-02-15T23:35:38.872Z,34.53
2019-02-15T23:38:07.457Z,35.80
2019-02-15T23:40:36.029Z,29.53
2019-02-15T23:43:04.616Z,26.17
2019-02-15T23:45:33.251Z,25.30
2019-02-15T23:48:01.840Z,25.97
2019-02-15T23:50:30.472Z,26.63
2019-02-15T23:52:59.092Z,27.97
2019-02-15T23:55:27.688Z,26.33
2019-02-15T23:57:56.277Z,23.87
